Time;durP1;ratioP1;P1;durP2;ratioP2;P2;SDS_P1;SDS_P2;PMS_P1;PMS_P2;Temp;Humidity;BMP_temperature;BMP_pressure;BME280_temperature;BME280_humidity;BME280_pressure;Samples;Min_cycle;Max_cycle;Signal;HPM_P1;HPM_P2
2023/03/16 00:02:19;;;;;;;1.38;1.05;;;16.00;49.50;;;;;;6214639;23;20011;-73
2023/03/16 00:04:46;;;;;;;1.48;1.10;;;16.00;49.60;;;;;;6224599;23;20026;-73
2023/03/16 00:07:12;;;;;;;1.20;1.10;;;16.00;49.60;;;;;;6224791;23;20070;-73
2023/03/16 00:09:41;;;;;;;1.52;1.25;;;16.00;49.80;;;;;;6224941;23;20004;-73
2023/03/16 00:12:14;;;;;;;1.40;1.08;;;16.00;49.80;;;;;;6224932;23;20475;-73
2023/03/16 00:14:44;;;;;;;1.48;1.08;;;16.00;50.40;;;;;;6224887;23;20458;-73
2023/03/16 00:17:17;;;;;;;2.23;1.43;;;16.00;49.70;;;;;;6224836;23;20000;-73
2023/03/16 00:19:47;;;;;;;1.13;1.02;;;16.00;49.80;;;;;;6224649;23;20270;-73
2023/03/16 00:22:14;;;;;;;1.38;1.08;;;15.90;49.70;;;;;;6215053;23;20070;-73
2023/03/16 00:24:43;;;;;;;1.13;1.02;;;16.00;50.00;;;;;;6224646;23;20001;-73
2023/03/16 00:27:13;;;;;;;1.38;1.10;;;16.00;50.00;;;;;;6224712;23;20038;-73
2023/03/16 00:29:45;;;;;;;1.15;1.00;;;16.00;50.00;;;;;;6224775;23;19996;-73
2023/03/16 00:32:16;;;;;;;1.30;1.10;;;16.00;49.90;;;;;;6224699;23;20323;-73
2023/03/16 00:34:43;;;;;;;2.00;1.23;;;16.00;50.00;;;;;;6224698;23;20001;-73
2023/03/16 00:37:09;;;;;;;1.20;1.10;;;16.00;49.90;;;;;;6224611;23;20016;-73
2023/03/16 00:39:34;;;;;;;3.85;1.33;;;15.90;49.90;;;;;;6224566;23;20058;-73
2023/03/16 00:42:03;;;;;;;1.25;1.15;;;16.00;50.00;;;;;;6224590;23;20000;-73
2023/03/16 00:44:30;;;;;;;1.45;1.23;;;16.00;50.00;;;;;;6224511;23;20000;-73
2023/03/16 00:46:56;;;;;;;2.28;1.20;;;15.90;49.90;;;;;;6224570;23;20000;-73
2023/03/16 00:49:21;;;;;;;1.27;1.17;;;15.90;50.00;;;;;;6224587;23;20297;-73
2023/03/16 00:51:47;;;;;;;1.58;1.30;;;16.00;50.10;;;;;;6224402;23;20423;-73
2023/03/16 00:54:13;;;;;;;1.25;1.15;;;16.00;50.00;;;;;;6224545;23;20007;-73
2023/03/16 00:56:38;;;;;;;1.90;1.30;;;15.90;50.60;;;;;;6224504;23;20082;-73
2023/03/16 00:59:04;;;;;;;1.83;1.30;;;15.90;49.90;;;;;;6224451;23;20009;-73
2023/03/16 01:01:33;;;;;;;1.45;1.30;;;15.90;50.40;;;;;;6214473;23;20340;-73
2023/03/16 01:04:17;;;;;;;1.88;1.40;;;16.00;50.10;;;;;;6214264;23;20016;-73
2023/03/16 01:06:44;;;;;;;2.58;1.40;;;15.90;50.00;;;;;;6214760;23;20063;-73
2023/03/16 01:09:11;;;;;;;1.25;1.15;;;15.90;49.90;;;;;;6214652;23;19997;-73
2023/03/16 01:11:37;;;;;;;1.08;0.93;;;15.90;49.90;;;;;;6213243;23;19997;-73
2023/03/16 01:14:03;;;;;;;1.17;1.08;;;16.00;50.00;;;;;;6214571;23;19996;-73
2023/03/16 01:16:32;;;;;;;2.33;1.20;;;15.90;50.10;;;;;;6215089;23;20059;-73
2023/03/16 01:18:58;;;;;;;1.38;0.82;;;15.90;50.10;;;;;;6226385;23;20071;-74
2023/03/16 01:21:24;;;;;;;1.33;1.23;;;15.90;50.10;;;;;;6224958;23;20039;-73
2023/03/16 01:23:49;;;;;;;1.58;1.33;;;15.90;50.20;;;;;;6226486;23;19997;-73
2023/03/16 01:26:16;;;;;;;1.25;1.15;;;15.90;50.10;;;;;;6226212;23;20003;-73
2023/03/16 01:28:43;;;;;;;2.08;1.15;;;15.90;50.10;;;;;;6226408;23;20328;-73
2023/03/16 01:31:10;;;;;;;1.50;1.23;;;15.90;50.10;;;;;;6226211;23;20007;-73
2023/03/16 01:33:37;;;;;;;1.58;1.20;;;15.90;50.10;;;;;;6226407;23;20331;-73
2023/03/16 01:36:13;;;;;;;1.17;1.08;;;15.90;50.80;;;;;;6226328;23;20028;-73
2023/03/16 01:38:39;;;;;;;1.48;1.38;;;15.90;50.10;;;;;;6226465;23;20047;-73
2023/03/16 01:41:06;;;;;;;2.25;1.45;;;15.90;50.00;;;;;;6226190;23;20040;-73
2023/03/16 01:43:33;;;;;;;2.55;1.35;;;15.90;50.10;;;;;;6226323;23;19997;-73
2023/03/16 01:46:05;;;;;;;1.83;1.10;;;15.90;50.10;;;;;;6226126;23;20077;-73
2023/03/16 01:48:50;;;;;;;1.73;1.20;;;15.90;50.20;;;;;;6226177;23;20007;-73
2023/03/16 01:51:24;;;;;;;2.15;1.20;;;15.80;50.10;;;;;;6226194;23;20027;-73
2023/03/16 01:53:53;;;;;;;1.10;1.00;;;15.90;50.20;;;;;;6226128;23;20110;-73
2023/03/16 01:56:28;;;;;;;1.58;1.30;;;15.90;50.30;;;;;;6226013;23;20079;-73
2023/03/16 01:58:57;;;;;;;1.60;1.20;;;15.90;50.20;;;;;;6226219;23;20051;-73
2023/03/16 02:01:27;;;;;;;2.40;1.10;;;15.90;50.20;;;;;;6225938;23;20474;-73
2023/03/16 02:03:55;;;;;;;;;;;15.90;50.30;;;;;;6216423;23;20018;-73
2023/03/16 02:06:22;;;;;;;2.75;1.05;;;15.80;50.30;;;;;;6215902;23;19953;-73
2023/03/16 02:08:49;;;;;;;1.45;0.80;;;15.80;50.40;;;;;;6226034;23;20420;-73
2023/03/16 02:11:18;;;;;;;1.05;0.80;;;15.80;50.40;;;;;;6225852;23;20019;-73
2023/03/16 02:13:45;;;;;;;1.60;1.10;;;15.80;50.30;;;;;;6226043;23;20071;-73
2023/03/16 02:16:12;;;;;;;1.20;0.95;;;15.80;50.30;;;;;;6225902;23;20063;-73
2023/03/16 02:18:38;;;;;;;2.35;1.20;;;15.80;50.40;;;;;;6226085;23;20000;-73
2023/03/16 02:21:24;;;;;;;1.17;1.05;;;15.80;50.40;;;;;;6225724;23;20036;-73
2023/03/16 02:23:50;;;;;;;1.40;0.98;;;15.80;50.40;;;;;;6215828;23;20001;-73
2023/03/16 02:26:29;;;;;;;2.53;0.98;;;15.80;50.50;;;;;;6225752;23;19993;-73
2023/03/16 02:29:22;;;;;;;2.28;1.20;;;15.90;50.50;;;;;;6225771;23;20004;-73
2023/03/16 02:31:47;;;;;;;1.55;1.13;;;15.80;50.50;;;;;;6225805;23;19993;-73
2023/03/16 02:34:15;;;;;;;2.00;1.30;;;15.80;50.50;;;;;;6225666;23;20008;-73
2023/03/16 02:36:44;;;;;;;1.55;1.10;;;15.80;50.40;;;;;;6225752;23;19999;-73
2023/03/16 02:39:10;;;;;;;2.13;1.08;;;15.80;50.70;;;;;;6225644;23;20007;-73
2023/03/16 02:41:35;;;;;;;1.25;1.00;;;15.80;50.60;;;;;;6225453;23;20008;-73
2023/03/16 02:44:13;;;;;;;2.50;1.42;;;15.80;50.60;;;;;;6225689;23;19993;-73
2023/03/16 02:46:42;;;;;;;1.20;0.82;;;15.80;51.20;;;;;;6225675;23;20016;-73
2023/03/16 02:49:25;;;;;;;1.38;0.82;;;15.80;50.60;;;;;;6225515;23;20000;-73
2023/03/16 02:51:51;;;;;;;2.03;0.93;;;15.80;50.60;;;;;;6215962;23;19996;-73
2023/03/16 02:54:17;;;;;;;1.95;1.15;;;15.80;50.70;;;;;;6225507;23;20031;-73
2023/03/16 02:56:42;;;;;;;1.45;0.90;;;15.80;50.80;;;;;;6225564;23;19992;-73
2023/03/16 02:59:08;;;;;;;2.00;1.05;;;15.80;50.80;;;;;;6225447;23;19997;-73
2023/03/16 03:01:35;;;;;;;1.25;1.10;;;15.80;50.80;;;;;;6225054;23;20009;-73
2023/03/16 03:04:02;;;;;;;1.95;1.13;;;15.80;50.70;;;;;;6225598;23;20004;-73
2023/03/16 03:06:28;;;;;;;1.70;1.17;;;15.80;50.80;;;;;;6225424;23;20007;-73
2023/03/16 03:08:55;;;;;;;1.85;1.10;;;15.80;50.80;;;;;;6225514;23;20019;-73
2023/03/16 03:11:21;;;;;;;1.25;0.95;;;15.80;50.80;;;;;;6225376;23;20004;-73
2023/03/16 03:13:46;;;;;;;1.17;1.08;;;15.80;50.90;;;;;;6225501;23;19993;-73
2023/03/16 03:16:12;;;;;;;1.58;1.08;;;15.80;50.80;;;;;;6225269;23;20023;-73
2023/03/16 03:18:38;;;;;;;1.02;0.90;;;15.80;50.80;;;;;;6225237;23;19997;-73
2023/03/16 03:21:04;;;;;;;1.20;0.90;;;15.80;50.80;;;;;;6225114;23;20384;-73
2023/03/16 03:23:30;;;;;;;1.65;1.02;;;15.80;50.90;;;;;;6225192;23;20320;-73
2023/03/16 03:25:57;;;;;;;0.90;0.73;;;15.80;50.80;;;;;;6225307;23;19996;-73
2023/03/16 03:28:23;;;;;;;1.80;1.35;;;15.80;51.50;;;;;;6225149;23;19997;-73
2023/03/16 03:30:50;;;;;;;2.55;1.10;;;15.80;50.80;;;;;;6225100;23;20074;-73
2023/03/16 03:33:16;;;;;;;1.80;0.90;;;15.80;50.80;;;;;;6225290;23;20451;-73
2023/03/16 03:35:41;;;;;;;2.25;1.00;;;15.70;50.70;;;;;;6225067;23;19996;-73
2023/03/16 03:38:07;;;;;;;1.33;0.98;;;15.80;50.90;;;;;;6225064;23;19999;-73
2023/03/16 03:40:33;;;;;;;1.27;0.93;;;15.80;50.80;;;;;;6224594;23;20107;-73
2023/03/16 03:42:59;;;;;;;1.25;0.90;;;15.80;50.80;;;;;;6225065;23;20501;-73
2023/03/16 03:45:25;;;;;;;1.23;1.10;;;15.80;51.00;;;;;;6225063;23;20004;-73
2023/03/16 03:47:51;;;;;;;1.30;0.80;;;15.70;51.50;;;;;;6225051;23;20054;-73
2023/03/16 03:50:16;;;;;;;2.28;1.08;;;15.70;50.90;;;;;;6225171;23;20001;-73
2023/03/16 03:52:42;;;;;;;1.95;0.95;;;15.70;50.90;;;;;;6224970;23;19999;-73
2023/03/16 03:55:09;;;;;;;4.43;0.90;;;15.70;50.90;;;;;;6215249;23;20000;-73
2023/03/16 03:57:35;;;;;;;2.03;0.90;;;15.70;50.90;;;;;;6224839;23;20020;-73
2023/03/16 04:00:00;;;;;;;2.08;0.98;;;15.80;51.00;;;;;;6224881;23;20384;-73
2023/03/16 04:02:26;;;;;;;1.42;0.95;;;15.70;51.00;;;;;;6224592;23;20432;-73
2023/03/16 04:04:52;;;;;;;1.10;0.90;;;15.80;51.10;;;;;;6224851;23;20028;-73
2023/03/16 04:07:17;;;;;;;1.35;0.90;;;15.80;51.00;;;;;;6224925;23;19997;-73
2023/03/16 04:09:43;;;;;;;1.30;0.70;;;15.80;51.10;;;;;;6215097;23;20320;-73
2023/03/16 04:12:09;;;;;;;1.90;1.05;;;15.80;51.10;;;;;;6224690;23;20004;-73
2023/03/16 04:14:35;;;;;;;1.42;0.93;;;15.80;51.20;;;;;;6224655;23;20505;-73
2023/03/16 04:17:01;;;;;;;1.80;0.80;;;15.70;50.90;;;;;;6215010;23;20024;-74
2023/03/16 04:19:27;;;;;;;1.17;0.85;;;15.80;51.20;;;;;;6224699;23;20123;-73
2023/03/16 04:21:53;;;;;;;1.13;0.90;;;15.80;51.00;;;;;;6214806;23;20012;-73
2023/03/16 04:24:18;;;;;;;2.38;1.20;;;15.80;51.10;;;;;;6224806;23;20446;-73
2023/03/16 04:26:44;;;;;;;1.02;0.73;;;15.80;51.10;;;;;;6224683;23;19997;-73
2023/03/16 04:29:13;;;;;;;1.30;0.95;;;15.70;51.00;;;;;;6224651;23;19997;-73
2023/03/16 04:31:39;;;;;;;1.58;0.93;;;15.70;51.10;;;;;;6224688;23;19996;-73
2023/03/16 04:34:05;;;;;;;1.23;0.70;;;15.80;51.10;;;;;;6224683;23;20063;-73
2023/03/16 04:36:31;;;;;;;1.85;0.73;;;15.70;51.10;;;;;;6224611;23;20007;-73
2023/03/16 04:38:57;;;;;;;2.15;0.70;;;15.80;51.20;;;;;;6224518;23;20028;-73
2023/03/16 04:41:23;;;;;;;1.23;0.80;;;15.80;51.30;;;;;;6224426;23;20004;-74
2023/03/16 04:43:48;;;;;;;2.15;0.75;;;15.80;51.10;;;;;;6214889;23;20016;-74
2023/03/16 04:46:14;;;;;;;1.25;0.50;;;15.80;51.10;;;;;;6224497;23;20000;-74
2023/03/16 04:48:40;;;;;;;1.20;0.77;;;15.80;51.10;;;;;;6224196;23;19996;-73
2023/03/16 04:51:05;;;;;;;1.38;0.80;;;15.80;51.20;;;;;;6223856;23;19997;-73
2023/03/16 04:53:31;;;;;;;1.88;0.90;;;15.80;51.10;;;;;;6214408;23;19997;-73
2023/03/16 04:55:58;;;;;;;1.73;0.90;;;15.80;51.80;;;;;;6214301;23;20004;-73
2023/03/16 04:58:24;;;;;;;3.13;1.23;;;15.80;51.20;;;;;;6224006;23;19996;-73
2023/03/16 05:00:54;;;;;;;0.77;0.70;;;15.80;51.20;;;;;;6213840;23;20071;-73
2023/03/16 05:03:20;;;;;;;1.13;0.55;;;15.80;51.30;;;;;;6223864;23;20009;-73
2023/03/16 05:05:46;;;;;;;1.52;0.80;;;15.80;51.90;;;;;;6223920;23;19996;-73
2023/03/16 05:08:12;;;;;;;1.88;0.80;;;15.80;51.30;;;;;;6223985;23;20067;-73
2023/03/16 05:10:38;;;;;;;1.00;0.70;;;15.80;51.50;;;;;;6223962;23;20364;-73
2023/03/16 05:13:04;;;;;;;1.27;0.70;;;15.80;51.50;;;;;;6223937;23;20317;-73
2023/03/16 05:15:30;;;;;;;1.02;0.80;;;15.80;52.20;;;;;;6223982;23;20139;-73
2023/03/16 05:17:56;;;;;;;1.15;0.82;;;15.80;51.50;;;;;;6223915;23;20436;-73
2023/03/16 05:20:23;;;;;;;1.65;1.20;;;15.80;51.60;;;;;;6223723;23;20018;-73
2023/03/16 05:22:49;;;;;;;1.95;1.10;;;15.80;51.80;;;;;;6224007;23;20000;-73
2023/03/16 05:25:16;;;;;;;1.55;1.45;;;15.90;51.90;;;;;;6223945;23;20028;-73
2023/03/16 05:27:47;;;;;;;2.45;2.20;;;15.80;51.80;;;;;;6223802;23;19999;-74
2023/03/16 05:30:15;;;;;;;3.20;3.00;;;15.80;51.90;;;;;;6223798;23;20000;-73
2023/03/16 05:32:41;;;;;;;4.18;3.88;;;15.80;52.10;;;;;;6223920;23;20067;-71
2023/03/16 05:35:08;;;;;;;5.53;5.13;;;15.90;52.30;;;;;;6214032;23;20360;-73
2023/03/16 05:37:36;;;;;;;7.78;7.15;;;15.90;52.30;;;;;;6223900;23;20051;-73
2023/03/16 05:40:13;;;;;;;8.90;8.20;;;15.80;52.30;;;;;;6223680;23;20375;-73
2023/03/16 05:42:39;;;;;;;11.35;10.45;;;15.80;52.40;;;;;;6213757;23;20483;-73
2023/03/16 05:45:05;;;;;;;12.45;11.55;;;15.90;52.50;;;;;;6223765;23;19992;-73
2023/03/16 05:47:31;;;;;;;14.88;13.68;;;15.80;52.40;;;;;;6214198;23;20027;-73
2023/03/16 05:49:56;;;;;;;15.73;14.63;;;15.80;52.50;;;;;;6223822;23;20323;-73
2023/03/16 05:52:24;;;;;;;18.13;16.73;;;15.80;52.60;;;;;;6223775;23;20063;-73
2023/03/16 05:54:49;;;;;;;18.15;16.65;;;15.80;52.70;;;;;;6213807;23;20046;-73
2023/03/16 05:57:15;;;;;;;20.15;18.65;;;15.80;52.50;;;;;;6214058;23;20029;-73
2023/03/16 05:59:40;;;;;;;23.30;21.40;;;15.80;52.70;;;;;;6223942;23;19992;-73
2023/03/16 06:02:09;;;;;;;23.20;21.20;;;15.80;52.80;;;;;;6223386;23;20012;-73
2023/03/16 06:04:35;;;;;;;22.70;20.92;;;15.80;52.70;;;;;;6225617;23;20000;-73
2023/03/16 06:07:01;;;;;;;22.20;20.40;;;15.80;52.70;;;;;;6215299;23;20035;-72
2023/03/16 06:09:27;;;;;;;21.48;19.75;;;15.80;53.30;;;;;;6215286;23;19992;-73
2023/03/16 06:11:53;;;;;;;21.45;19.75;;;15.80;52.60;;;;;;6215305;23;20107;-73
2023/03/16 06:14:20;;;;;;;20.45;18.77;;;15.80;52.60;;;;;;6215628;23;20000;-73
2023/03/16 06:16:46;;;;;;;20.85;19.15;;;15.80;53.20;;;;;;6215794;23;20000;-73
2023/03/16 06:19:12;;;;;;;19.58;17.90;;;15.80;52.60;;;;;;6215554;23;20001;-73
2023/03/16 06:21:38;;;;;;;18.33;16.88;;;15.80;52.70;;;;;;6215866;23;20031;-73
2023/03/16 06:24:06;;;;;;;17.30;16.00;;;15.80;52.60;;;;;;6215884;23;20432;-73
2023/03/16 06:26:32;;;;;;;17.98;16.67;;;15.80;52.70;;;;;;6215997;23;20369;-72
2023/03/16 06:28:58;;;;;;;16.67;15.25;;;15.80;52.70;;;;;;6215736;23;20000;-73
2023/03/16 06:31:24;;;;;;;14.88;13.73;;;15.80;52.60;;;;;;6215964;23;20384;-72
2023/03/16 06:33:50;;;;;;;15.10;13.80;;;15.70;52.50;;;;;;6216089;23;20006;-73
2023/03/16 06:36:16;;;;;;;15.07;13.88;;;15.70;52.60;;;;;;6215876;23;20004;-80
2023/03/16 06:38:42;;;;;;;12.85;11.90;;;15.80;52.60;;;;;;6216069;23;20013;-79
2023/03/16 06:41:08;;;;;;;12.30;11.30;;;15.70;52.50;;;;;;6215440;23;20447;-78
2023/03/16 06:43:34;;;;;;;11.80;10.70;;;15.70;52.50;;;;;;6215485;23;20116;-79
2023/03/16 06:46:02;;;;;;;12.50;11.50;;;15.70;52.40;;;;;;6215854;23;20004;-78
2023/03/16 06:48:28;;;;;;;10.60;9.70;;;15.70;52.50;;;;;;6215497;23;20000;-77
2023/03/16 06:50:54;;;;;;;10.10;9.40;;;15.70;52.30;;;;;;6215976;23;20001;-77
2023/03/16 06:53:21;;;;;;;9.70;9.00;;;15.70;52.30;;;;;;6215430;23;19997;-78
2023/03/16 06:55:47;;;;;;;8.85;8.15;;;15.70;52.40;;;;;;6215877;23;20007;-78
2023/03/16 06:58:13;;;;;;;8.73;8.13;;;15.70;52.40;;;;;;6215616;23;20343;-77
2023/03/16 07:00:39;;;;;;;8.02;7.35;;;15.70;52.30;;;;;;6215545;23;20083;-78
2023/03/16 07:03:05;;;;;;;8.02;7.32;;;15.70;52.30;;;;;;6215176;23;20008;-77
2023/03/16 07:05:31;;;;;;;7.70;7.00;;;15.70;52.40;;;;;;6214111;23;20007;-78
2023/03/16 07:07:57;;;;;;;6.90;6.20;;;15.70;52.40;;;;;;6215186;23;20428;-77
2023/03/16 07:10:24;;;;;;;6.68;6.07;;;15.60;52.30;;;;;;6215610;23;20047;-77
2023/03/16 07:12:50;;;;;;;7.57;5.85;;;15.60;52.40;;;;;;6215735;23;20005;-77
2023/03/16 07:15:17;;;;;;;6.03;5.53;;;15.70;52.40;;;;;;6214881;23;20428;-77
2023/03/16 07:17:43;;;;;;;5.38;4.88;;;15.70;52.30;;;;;;6215326;23;20562;-77
2023/03/16 07:20:11;;;;;;;4.80;4.40;;;15.70;52.30;;;;;;6215079;23;20008;-77
2023/03/16 07:22:38;;;;;;;5.13;4.13;;;15.70;52.30;;;;;;6215603;23;20067;-77
2023/03/16 07:25:05;;;;;;;4.38;3.80;;;15.60;52.20;;;;;;6215280;23;20379;-77
2023/03/16 07:27:31;;;;;;;5.00;4.03;;;15.70;52.20;;;;;;6215365;23;19996;-75
2023/03/16 07:29:59;;;;;;;3.92;3.53;;;15.60;52.20;;;;;;6225169;23;20000;-76
2023/03/16 07:32:24;;;;;;;3.47;3.17;;;15.60;52.20;;;;;;6225283;23;20007;-75
2023/03/16 07:34:50;;;;;;;2.97;2.78;;;15.60;52.20;;;;;;6225090;23;20000;-77
2023/03/16 07:37:16;;;;;;;2.90;2.60;;;15.60;52.10;;;;;;6215256;23;20021;-80
2023/03/16 07:39:42;;;;;;;3.55;2.58;;;15.60;52.10;;;;;;6215508;23;20003;-77
2023/03/16 07:42:08;;;;;;;3.25;2.08;;;15.60;52.10;;;;;;6214962;23;20454;-78
2023/03/16 07:44:34;;;;;;;2.22;2.03;;;15.60;52.10;;;;;;6215154;23;20059;-77
2023/03/16 07:47:00;;;;;;;3.50;2.00;;;15.60;52.00;;;;;;6214989;23;20444;-78
2023/03/16 07:49:27;;;;;;;1.90;1.80;;;15.60;52.10;;;;;;6215292;23;20058;-78
2023/03/16 07:51:53;;;;;;;2.38;2.08;;;15.50;52.00;;;;;;6214998;23;19997;-79
2023/03/16 07:54:19;;;;;;;4.03;1.63;;;15.50;51.90;;;;;;6215241;23;20107;-80
2023/03/16 07:56:44;;;;;;;4.22;1.83;;;15.50;52.10;;;;;;6214816;23;20423;-76
2023/03/16 07:59:11;;;;;;;1.85;1.60;;;15.50;52.20;;;;;;6215325;23;20011;-77
2023/03/16 08:01:37;;;;;;;2.20;1.50;;;15.50;52.10;;;;;;6214699;23;20035;-75
2023/03/16 08:04:03;;;;;;;1.75;1.33;;;15.40;52.20;;;;;;6215265;23;20535;-75
2023/03/16 08:06:29;;;;;;;1.55;1.20;;;15.40;52.10;;;;;;6215088;23;20372;-76
2023/03/16 08:08:55;;;;;;;3.17;1.40;;;15.40;52.80;;;;;;6214853;23;20004;-76
2023/03/16 08:11:24;;;;;;;2.65;1.30;;;15.40;52.20;;;;;;6214764;23;20065;-75
2023/03/16 08:13:53;;;;;;;1.50;1.25;;;15.50;52.20;;;;;;6224850;23;20004;-76
2023/03/16 08:16:22;;;;;;;1.95;1.35;;;15.50;52.20;;;;;;6224901;23;20001;-75
2023/03/16 08:18:50;;;;;;;1.35;0.98;;;15.40;52.10;;;;;;6224683;23;20423;-75
2023/03/16 08:21:16;;;;;;;2.13;1.15;;;15.40;52.30;;;;;;6214851;23;20015;-75
2023/03/16 08:23:49;;;;;;;1.60;1.05;;;15.40;52.20;;;;;;6224889;23;20072;-80
2023/03/16 08:26:16;;;;;;;3.33;1.08;;;15.40;52.20;;;;;;6224933;23;20004;-80
2023/03/16 08:28:45;;;;;;;2.90;1.10;;;15.40;52.20;;;;;;6215138;23;20448;-78
2023/03/16 08:31:13;;;;;;;0.77;0.77;;;15.40;52.10;;;;;;6214623;23;20436;-80
2023/03/16 08:33:41;;;;;;;0.93;0.70;;;15.40;52.30;;;;;;6214989;23;20001;-77
2023/03/16 08:36:10;;;;;;;0.70;0.70;;;15.40;52.10;;;;;;6214665;23;20476;-76
2023/03/16 08:38:38;;;;;;;1.70;0.77;;;15.40;52.20;;;;;;6214472;23;20466;-83
2023/03/16 08:41:05;;;;;;;1.52;0.70;;;15.40;52.20;;;;;;6215137;23;20004;-76
2023/03/16 08:43:31;;;;;;;1.33;0.90;;;15.40;52.20;;;;;;6214643;23;19993;-78
2023/03/16 08:45:58;;;;;;;1.25;0.63;;;15.40;52.10;;;;;;6214967;23;19996;-76
2023/03/16 08:48:25;;;;;;;0.57;0.50;;;15.40;52.20;;;;;;6214520;23;19997;-78
2023/03/16 08:50:52;;;;;;;1.15;0.80;;;15.40;52.10;;;;;;6214945;23;20007;-76
2023/03/16 08:53:19;;;;;;;1.45;0.80;;;15.40;52.10;;;;;;6214556;23;19993;-77
2023/03/16 08:55:46;;;;;;;1.65;0.80;;;15.40;52.10;;;;;;6214780;23;20024;-77
2023/03/16 08:58:13;;;;;;;1.98;0.63;;;15.40;52.10;;;;;;6214820;23;19996;-78
2023/03/16 09:00:40;;;;;;;1.58;0.82;;;15.50;52.20;;;;;;6214357;23;20005;-77
2023/03/16 09:03:06;;;;;;;1.92;0.80;;;15.50;52.20;;;;;;6214153;23;20479;-77
2023/03/16 09:05:33;;;;;;;1.15;1.00;;;15.50;52.20;;;;;;6214789;23;19997;-77
2023/03/16 09:08:00;;;;;;;1.25;0.63;;;15.40;52.00;;;;;;6214671;23;19997;-76
2023/03/16 09:10:26;;;;;;;1.73;0.65;;;15.50;52.10;;;;;;6214703;23;20003;-78
2023/03/16 09:12:52;;;;;;;1.13;0.60;;;15.50;52.10;;;;;;6224383;23;20004;-77
2023/03/16 09:15:19;;;;;;;1.85;0.73;;;15.40;52.20;;;;;;6224788;23;20001;-77
2023/03/16 09:17:46;;;;;;;1.33;0.68;;;15.40;52.10;;;;;;6214432;23;20084;-77
2023/03/16 09:20:15;;;;;;;1.27;0.70;;;15.40;52.20;;;;;;6224310;23;20001;-78
2023/03/16 09:22:40;;;;;;;4.65;0.80;;;15.50;52.30;;;;;;6224581;23;20004;-77
2023/03/16 09:25:08;;;;;;;1.63;0.82;;;15.50;52.10;;;;;;6224329;23;20019;-77
2023/03/16 09:27:38;;;;;;;1.95;0.77;;;15.50;52.10;;;;;;6224565;23;20024;-77
2023/03/16 09:30:06;;;;;;;2.45;0.70;;;15.50;52.00;;;;;;6224300;23;20007;-77
2023/03/16 09:32:32;;;;;;;2.22;0.70;;;15.50;52.00;;;;;;6214835;23;20000;-77
2023/03/16 09:34:58;;;;;;;1.38;0.68;;;15.50;52.00;;;;;;6224823;23;19993;-77
2023/03/16 09:37:24;;;;;;;3.40;0.90;;;15.60;52.10;;;;;;6224688;23;19996;-78
2023/03/16 09:39:51;;;;;;;1.85;0.80;;;15.60;52.00;;;;;;6226500;23;20036;-77
2023/03/16 09:42:50;;;;;;;0.82;0.82;;;15.60;52.10;;;;;;6216572;23;20004;-76
2023/03/16 09:45:40;;;;;;;1.02;0.57;;;15.70;52.20;;;;;;6216632;23;19993;-76
2023/03/16 09:48:09;;;;;;;0.98;0.60;;;15.70;52.40;;;;;;6216451;23;19996;-78
2023/03/16 09:50:40;;;;;;;1.63;0.73;;;15.70;52.40;;;;;;6216489;23;20084;-77
2023/03/16 09:53:28;;;;;;;1.95;0.57;;;15.60;52.40;;;;;;6216447;23;20000;-78
2023/03/16 09:56:14;;;;;;;1.23;0.75;;;15.70;52.50;;;;;;6227124;23;19993;-77
2023/03/16 09:58:40;;;;;;;1.50;0.65;;;15.70;52.40;;;;;;6226707;23;20039;-78
2023/03/16 10:01:19;;;;;;;0.70;0.60;;;15.60;60.80;;;;;;6215654;23;20011;-79
2023/03/16 10:04:06;;;;;;;0.80;0.50;;;15.70;52.40;;;;;;6215982;23;20022;-79
2023/03/16 10:06:42;;;;;;;1.38;0.68;;;15.80;52.50;;;;;;6215998;23;20428;-78
2023/03/16 10:09:27;;;;;;;1.75;0.70;;;15.80;52.40;;;;;;6215942;23;20455;-79
2023/03/16 10:11:56;;;;;;;2.78;0.63;;;15.80;52.50;;;;;;6215909;23;20003;-79
2023/03/16 10:14:37;;;;;;;0.80;0.80;;;15.90;52.50;;;;;;6216266;23;20324;-79
2023/03/16 10:17:22;;;;;;;2.13;0.80;;;15.90;52.50;;;;;;6216278;23;20250;-78
2023/03/16 10:20:09;;;;;;;1.20;0.60;;;15.90;52.50;;;;;;6215851;23;20004;-78
2023/03/16 10:22:43;;;;;;;1.98;0.60;;;15.90;52.50;;;;;;6216318;23;20038;-79
2023/03/16 10:25:20;;;;;;;3.70;0.80;;;16.00;52.50;;;;;;6215803;23;20239;-79
2023/03/16 10:27:47;;;;;;;2.42;0.60;;;16.00;52.50;;;;;;6225967;23;20004;-79
2023/03/16 10:30:24;;;;;;;1.38;0.65;;;16.00;52.60;;;;;;6215632;23;19996;-79
2023/03/16 10:32:50;;;;;;;1.33;0.65;;;16.00;52.60;;;;;;6225905;23;20011;-79
2023/03/16 10:36:08;;;;;;;1.38;0.70;;;16.00;52.60;;;;;;6215901;23;20328;-77
2023/03/16 10:38:41;;;;;;;1.35;0.70;;;16.00;52.60;;;;;;6191666;23;20051;-79
2023/03/16 10:41:36;;;;;;;1.48;0.30;;;16.10;52.60;;;;;;6215574;23;20015;-78
2023/03/16 10:44:25;;;;;;;0.68;0.60;;;16.10;52.70;;;;;;6210607;23;20063;-77
2023/03/16 10:47:15;;;;;;;1.20;0.68;;;16.10;52.60;;;;;;6225703;23;20020;-77
2023/03/16 10:49:47;;;;;;;0.93;0.52;;;16.10;52.60;;;;;;6206713;23;20047;-77
2023/03/16 10:52:33;;;;;;;2.08;0.68;;;16.20;52.70;;;;;;6225705;23;20460;-77
2023/03/16 10:55:31;;;;;;;2.25;0.85;;;16.20;52.70;;;;;;6216025;23;20323;-78
2023/03/16 10:57:57;;;;;;;1.10;0.68;;;16.20;53.30;;;;;;6216001;23;20071;-78
2023/03/16 11:00:29;;;;;;;2.88;0.60;;;16.20;53.30;;;;;;6215611;23;20055;-77
2023/03/16 11:02:58;;;;;;;1.40;0.60;;;16.20;52.70;;;;;;6215179;23;20015;-77
2023/03/16 11:05:24;;;;;;;0.80;0.70;;;16.20;52.70;;;;;;6215562;23;20011;-77
2023/03/16 11:08:10;;;;;;;2.25;0.50;;;16.20;52.70;;;;;;6215357;23;20007;-76
2023/03/16 11:10:43;;;;;;;1.02;0.70;;;16.20;52.80;;;;;;6215736;23;20001;-77
2023/03/16 11:13:14;;;;;;;2.00;1.05;;;16.20;52.80;;;;;;6215673;23;20012;-76
2023/03/16 11:15:57;;;;;;;2.88;1.10;;;16.30;52.90;;;;;;6225283;23;20071;-76
2023/03/16 11:18:34;;;;;;;1.10;0.60;;;16.20;52.90;;;;;;6225399;23;20004;-76
2023/03/16 11:21:29;;;;;;;1.75;0.52;;;16.30;53.00;;;;;;6225751;23;20185;-78
2023/03/16 11:23:56;;;;;;;1.40;0.70;;;16.30;52.90;;;;;;6225445;23;19997;-77
2023/03/16 11:26:32;;;;;;;2.17;0.50;;;16.30;52.70;;;;;;6225230;23;19997;-75
2023/03/16 11:29:16;;;;;;;1.48;0.40;;;16.30;52.90;;;;;;6225449;23;20075;-74
2023/03/16 11:31:52;;;;;;;1.20;0.50;;;16.30;52.90;;;;;;6215557;23;20005;-75
2023/03/16 11:34:21;;;;;;;1.83;0.63;;;16.30;52.90;;;;;;6225596;23;20008;-78
2023/03/16 11:36:52;;;;;;;1.55;0.70;;;16.30;52.90;;;;;;6225243;23;20432;-76
2023/03/16 11:39:53;;;;;;;3.70;0.70;;;16.30;53.00;;;;;;6225244;23;20332;-79
2023/03/16 11:42:29;;;;;;;2.20;0.60;;;16.40;52.90;;;;;;6225224;23;20012;-77
2023/03/16 11:45:10;;;;;;;1.58;0.77;;;16.40;52.70;;;;;;6214994;23;20061;-76
2023/03/16 11:48:14;;;;;;;1.50;0.70;;;16.40;53.20;;;;;;6225124;23;20419;-78
2023/03/16 11:50:52;;;;;;;2.25;1.20;;;16.50;52.60;;;;;;6214355;23;20086;-76
2023/03/16 11:53:49;;;;;;;4.25;1.15;;;16.50;52.40;;;;;;6225108;23;20324;-76
2023/03/16 11:56:40;;;;;;;2.30;0.50;;;16.70;52.20;;;;;;6225067;23;19997;-78
2023/03/16 11:59:35;;;;;;;2.28;0.80;;;16.80;51.90;;;;;;6215244;23;20076;-77
2023/03/16 12:02:31;;;;;;;1.83;0.80;;;16.90;51.70;;;;;;6202745;23;20108;-77
2023/03/16 12:05:22;;;;;;;0.93;0.60;;;16.90;51.70;;;;;;6214775;23;20000;-77
2023/03/16 12:07:51;;;;;;;0.98;0.60;;;16.90;51.60;;;;;;6225044;23;20004;-77
2023/03/16 12:10:42;;;;;;;1.83;0.73;;;16.90;52.20;;;;;;6216235;23;20070;-77
2023/03/16 12:13:51;;;;;;;2.45;0.70;;;17.00;51.60;;;;;;6215229;23;20004;-77
2023/03/16 12:16:25;;;;;;;3.33;0.70;;;17.00;51.40;;;;;;6152138;23;20001;-77
2023/03/16 12:19:21;;;;;;;2.88;0.82;;;17.20;51.20;;;;;;6206204;23;19997;-78
2023/03/16 12:22:00;;;;;;;3.22;0.43;;;17.30;51.00;;;;;;6213476;23;20015;-77
2023/03/16 12:24:31;;;;;;;2.13;0.60;;;17.50;50.80;;;;;;6215138;23;20001;-77
2023/03/16 12:26:58;;;;;;;1.88;0.80;;;17.60;50.50;;;;;;6214860;23;20462;-77
2023/03/16 12:29:40;;;;;;;2.17;0.60;;;17.70;50.50;;;;;;6214955;23;20320;-77
2023/03/16 12:32:24;;;;;;;2.30;0.73;;;17.80;50.30;;;;;;6225110;23;20326;-77
2023/03/16 12:35:03;;;;;;;1.58;0.80;;;17.80;50.10;;;;;;6224797;23;20001;-78
2023/03/16 12:37:40;;;;;;;4.43;0.90;;;18.00;50.00;;;;;;6224707;23;19992;-78
2023/03/16 12:40:30;;;;;;;3.00;0.90;;;18.00;50.00;;;;;;6224649;23;19996;-78
2023/03/16 12:43:15;;;;;;;1.20;0.60;;;18.10;49.80;;;;;;6224825;23;20075;-78
2023/03/16 12:45:56;;;;;;;1.48;0.63;;;18.20;49.70;;;;;;6224705;23;20008;-72
2023/03/16 12:48:28;;;;;;;1.50;0.52;;;18.30;49.70;;;;;;6214937;23;20007;-72
2023/03/16 12:51:00;;;;;;;2.28;0.70;;;18.40;49.60;;;;;;6214510;23;20007;-72
2023/03/16 12:53:51;;;;;;;1.70;0.70;;;18.40;49.70;;;;;;6214893;23;20377;-72
2023/03/16 12:56:45;;;;;;;0.75;0.50;;;18.40;49.70;;;;;;6214861;23;20001;-72
2023/03/16 12:59:20;;;;;;;1.55;1.08;;;18.40;49.60;;;;;;6206889;23;20059;-72
2023/03/16 13:01:57;;;;;;;1.35;0.73;;;18.50;49.70;;;;;;6214399;23;20009;-72
2023/03/16 13:04:38;;;;;;;1.13;0.50;;;18.50;49.70;;;;;;6214467;23;20001;-72